createdAt,value
2024-02-02T00:00:47.151Z,5.91
2024-02-02T00:03:14.056Z,5.83
2024-02-02T00:05:40.849Z,5.73
2024-02-02T00:08:07.901Z,5.72
2024-02-02T00:10:34.751Z,5.64
2024-02-02T00:13:01.418Z,5.73
2024-02-02T00:15:28.163Z,5.72
2024-02-02T00:17:55.032Z,5.80
2024-02-02T00:20:21.852Z,5.92
2024-02-02T00:22:48.618Z,5.87
2024-02-02T00:25:15.366Z,5.85
2024-02-02T00:27:42.007Z,5.99
2024-02-02T00:30:09.267Z,5.96
2024-02-02T00:32:35.965Z,5.88
2024-02-02T00:35:03.064Z,5.96
2024-02-02T00:37:29.854Z,6.02
2024-02-02T00:39:56.521Z,5.87
2024-02-02T00:42:23.226Z,5.81
2024-02-02T00:44:49.946Z,5.86
2024-02-02T00:47:16.653Z,5.91
2024-02-02T00:49:43.496Z,5.98
2024-02-02T00:52:10.347Z,5.86
2024-02-02T00:54:37.093Z,5.90
2024-02-02T00:57:04.173Z,5.76
2024-02-02T00:59:30.876Z,5.63
2024-02-02T01:01:57.640Z,5.52
2024-02-02T01:04:24.326Z,5.49
2024-02-02T01:06:51.157Z,5.43
2024-02-02T01:09:18.001Z,5.45
2024-02-02T01:11:44.844Z,5.45
2024-02-02T01:14:11.719Z,5.62
2024-02-02T01:16:38.416Z,5.64
2024-02-02T01:19:05.473Z,5.72
2024-02-02T01:21:32.315Z,5.68
2024-02-02T01:24:00.280Z,5.38
2024-02-02T01:26:26.973Z,5.57
2024-02-02T01:28:53.628Z,5.45
2024-02-02T01:31:20.272Z,5.51
2024-02-02T01:33:47.080Z,5.55
2024-02-02T01:36:13.845Z,5.62
2024-02-02T01:38:40.602Z,5.55
2024-02-02T01:41:07.246Z,5.67
2024-02-02T01:43:33.920Z,5.56
2024-02-02T01:46:00.585Z,5.43
2024-02-02T01:48:27.796Z,5.00
2024-02-02T01:50:54.889Z,5.03
2024-02-02T01:53:21.926Z,5.16
2024-02-02T01:55:48.631Z,5.30
2024-02-02T01:58:15.502Z,5.40
2024-02-02T02:00:42.619Z,5.51
2024-02-02T02:03:09.475Z,5.60
2024-02-02T02:05:37.279Z,5.63
2024-02-02T02:08:04.158Z,5.59
2024-02-02T02:10:31.046Z,5.63
2024-02-02T02:12:58.293Z,5.67
2024-02-02T02:15:25.496Z,5.68
2024-02-02T02:17:55.171Z,5.71
2024-02-02T02:20:23.669Z,5.72
2024-02-02T02:22:50.464Z,5.67
2024-02-02T02:25:17.224Z,5.58
2024-02-02T02:27:44.255Z,5.52
2024-02-02T02:30:11.579Z,5.53
2024-02-02T02:32:38.179Z,5.44
2024-02-02T02:35:05.243Z,5.54
2024-02-02T02:37:31.961Z,5.61
2024-02-02T02:39:59.167Z,5.60
2024-02-02T02:42:25.946Z,5.59
2024-02-02T02:44:52.712Z,5.60
2024-02-02T02:47:20.041Z,5.62
2024-02-02T02:49:46.626Z,5.64
2024-02-02T02:52:13.296Z,5.64
2024-02-02T02:54:40.043Z,5.68
2024-02-02T02:57:06.710Z,5.60
2024-02-02T02:59:33.697Z,5.53
2024-02-02T03:02:00.424Z,5.51
2024-02-02T03:04:27.326Z,5.48
2024-02-02T03:06:54.103Z,5.49
2024-02-02T03:09:20.899Z,5.50
2024-02-02T03:11:47.654Z,5.51
2024-02-02T03:14:14.977Z,5.56
2024-02-02T03:16:41.661Z,5.44
2024-02-02T03:19:08.457Z,5.37
2024-02-02T03:21:36.351Z,5.30
2024-02-02T03:24:03.501Z,5.38
2024-02-02T03:26:30.292Z,5.47
2024-02-02T03:28:58.181Z,5.40
2024-02-02T03:31:24.905Z,5.40
2024-02-02T03:33:51.780Z,5.39
2024-02-02T03:36:18.582Z,5.40
2024-02-02T03:38:45.249Z,5.36
2024-02-02T03:41:11.888Z,5.39
2024-02-02T03:43:38.542Z,5.34
2024-02-02T03:46:05.431Z,5.17
2024-02-02T03:48:32.205Z,5.15
2024-02-02T03:50:58.953Z,5.13
2024-02-02T03:53:25.630Z,5.15
2024-02-02T03:55:52.272Z,5.14
2024-02-02T03:58:18.924Z,5.19
2024-02-02T04:00:46.601Z,5.25
2024-02-02T04:03:13.476Z,5.34
2024-02-02T04:05:41.057Z,5.33
2024-02-02T04:08:08.334Z,5.29
2024-02-02T04:10:35.064Z,5.34
2024-02-02T04:13:03.454Z,5.39
2024-02-02T04:15:33.122Z,5.28
2024-02-02T04:18:00.619Z,5.29
2024-02-02T04:20:27.524Z,5.25
2024-02-02T04:22:54.237Z,5.27
2024-02-02T04:25:20.909Z,5.24
2024-02-02T04:27:47.615Z,5.28
2024-02-02T04:30:14.660Z,5.12
2024-02-02T04:32:42.354Z,5.15
2024-02-02T04:35:09.124Z,5.12
2024-02-02T04:37:35.794Z,5.14
2024-02-02T04:40:02.576Z,5.15
2024-02-02T04:42:29.347Z,5.06
2024-02-02T04:44:56.237Z,4.97
2024-02-02T04:47:23.765Z,4.99
2024-02-02T04:49:50.675Z,5.09
2024-02-02T04:52:17.407Z,5.16
2024-02-02T04:54:44.142Z,5.22
2024-02-02T04:57:10.813Z,5.26
2024-02-02T04:59:38.526Z,5.21
2024-02-02T05:02:06.617Z,5.05
2024-02-02T05:04:34.002Z,5.06
2024-02-02T05:07:00.809Z,5.13
2024-02-02T05:09:27.568Z,5.17
2024-02-02T05:11:54.251Z,5.16
2024-02-02T05:14:20.916Z,5.06
2024-02-02T05:16:47.648Z,4.88
2024-02-02T05:19:14.448Z,4.92
2024-02-02T05:21:41.212Z,4.79
2024-02-02T05:24:20.498Z,4.86
2024-02-02T05:26:54.672Z,4.96
2024-02-02T05:29:21.338Z,5.06
2024-02-02T05:31:47.974Z,5.17
2024-02-02T05:34:14.969Z,5.15
2024-02-02T05:36:41.695Z,5.22
2024-02-02T05:39:10.099Z,5.14
2024-02-02T05:41:36.792Z,4.94
2024-02-02T05:44:03.615Z,4.60
2024-02-02T05:46:30.293Z,4.47
2024-02-02T05:48:57.371Z,4.64
2024-02-02T05:51:24.187Z,4.66
2024-02-02T05:53:50.907Z,4.88
2024-02-02T05:56:17.579Z,4.95
2024-02-02T05:58:44.229Z,4.85
2024-02-02T06:01:10.941Z,4.65
2024-02-02T06:03:37.795Z,5.06
2024-02-02T06:06:04.761Z,4.98
2024-02-02T06:08:31.475Z,4.90
2024-02-02T06:10:58.124Z,4.76
2024-02-02T06:13:24.789Z,4.83
2024-02-02T06:15:51.428Z,4.60
2024-02-02T06:18:20.790Z,4.44
2024-02-02T06:20:47.690Z,4.43
2024-02-02T06:23:14.432Z,4.45
2024-02-02T06:25:41.553Z,4.49
2024-02-02T06:28:09.485Z,4.83
2024-02-02T06:30:36.284Z,5.05
2024-02-02T06:33:03.113Z,5.03
2024-02-02T06:35:31.394Z,5.03
2024-02-02T06:37:59.074Z,5.09
2024-02-02T06:40:25.849Z,5.22
2024-02-02T06:42:52.561Z,5.17
2024-02-02T06:45:19.326Z,5.30
2024-02-02T06:47:46.053Z,4.95
2024-02-02T06:50:12.715Z,4.91
2024-02-02T06:52:39.355Z,4.78
2024-02-02T06:55:06.310Z,4.91
2024-02-02T06:57:33.474Z,5.01
2024-02-02T07:00:01.556Z,5.45
2024-02-02T07:02:34.170Z,5.12
2024-02-02T07:05:01.853Z,5.28
2024-02-02T07:07:28.824Z,5.19
2024-02-02T07:09:59.100Z,5.01
2024-02-02T07:12:34.866Z,5.10
2024-02-02T07:15:05.742Z,5.12
2024-02-02T07:17:38.726Z,5.30
2024-02-02T07:20:11.200Z,5.32
2024-02-02T07:22:44.017Z,5.37
2024-02-02T07:25:18.637Z,5.66
2024-02-02T07:27:52.667Z,5.72
2024-02-02T07:30:45.364Z,5.48
2024-02-02T07:33:25.676Z,5.39
2024-02-02T07:35:54.742Z,5.46
2024-02-02T07:38:43.260Z,5.63
2024-02-02T07:41:11.987Z,5.90
2024-02-02T07:43:38.697Z,5.69
2024-02-02T07:46:10.521Z,5.89
2024-02-02T07:48:40.195Z,6.00
2024-02-02T07:51:08.347Z,6.09
2024-02-02T07:53:35.696Z,6.00
2024-02-02T07:56:02.528Z,5.81
2024-02-02T07:58:29.333Z,6.00
2024-02-02T08:00:56.108Z,6.04
2024-02-02T08:03:23.143Z,6.08
2024-02-02T08:05:49.893Z,6.03
2024-02-02T08:08:16.610Z,6.11
2024-02-02T08:10:44.248Z,6.13
2024-02-02T08:13:15.436Z,6.12
2024-02-02T08:15:42.414Z,6.37
2024-02-02T08:18:10.341Z,6.39
2024-02-02T08:20:37.555Z,6.37
2024-02-02T08:23:05.791Z,6.22
2024-02-02T08:25:32.587Z,6.30
2024-02-02T08:27:59.505Z,6.44
2024-02-02T08:30:26.294Z,6.47
2024-02-02T08:32:53.306Z,6.56
2024-02-02T08:35:24.362Z,6.62
2024-02-02T08:37:58.978Z,6.67
2024-02-02T08:40:41.010Z,6.74
2024-02-02T08:43:18.924Z,6.81
2024-02-02T08:45:57.598Z,6.71
2024-02-02T08:48:33.996Z,6.68
2024-02-02T08:51:01.993Z,6.70
2024-02-02T08:53:30.890Z,6.27
2024-02-02T08:56:02.352Z,6.34
2024-02-02T08:58:36.237Z,6.13
2024-02-02T09:01:07.124Z,6.37
2024-02-02T09:03:45.828Z,6.24
2024-02-02T09:06:45.873Z,6.50
2024-02-02T09:09:16.040Z,5.97
2024-02-02T09:11:48.766Z,5.97
2024-02-02T09:14:19.131Z,6.33
2024-02-02T09:16:49.241Z,6.29
2024-02-02T09:19:32.195Z,6.55
2024-02-02T09:22:02.578Z,6.45
2024-02-02T09:24:29.391Z,6.74
2024-02-02T09:26:58.990Z,6.70
2024-02-02T09:29:25.975Z,7.26
2024-02-02T09:31:52.609Z,7.14
2024-02-02T09:34:28.834Z,7.00
2024-02-02T09:36:55.695Z,7.08
2024-02-02T09:39:55.403Z,7.05
2024-02-02T09:42:51.299Z,7.05
2024-02-02T09:45:32.184Z,7.36
2024-02-02T09:48:07.092Z,7.27
2024-02-02T09:50:51.730Z,7.39
2024-02-02T09:53:40.252Z,7.76
2024-02-02T09:56:43.259Z,7.60
2024-02-02T09:59:18.951Z,7.36
2024-02-02T10:01:58.056Z,7.55
2024-02-02T10:04:36.730Z,7.45
2024-02-02T10:07:03.663Z,7.51
2024-02-02T10:09:48.920Z,7.63
2024-02-02T10:12:41.826Z,7.35
2024-02-02T10:15:23.842Z,7.34
2024-02-02T10:18:11.541Z,7.88
2024-02-02T10:21:12.362Z,8.03
2024-02-02T10:23:49.581Z,7.77
2024-02-02T10:26:41.247Z,7.91
2024-02-02T10:29:07.847Z,8.25
2024-02-02T10:31:58.465Z,8.23
2024-02-02T10:34:54.869Z,8.15
2024-02-02T10:37:38.718Z,7.66
2024-02-02T10:40:22.586Z,7.72
2024-02-02T10:43:04.550Z,7.92
2024-02-02T10:45:41.590Z,8.21
2024-02-02T10:48:32.384Z,7.89
2024-02-02T10:51:43.588Z,7.95
2024-02-02T10:54:34.576Z,7.71
2024-02-02T10:57:19.774Z,7.87
2024-02-02T11:00:08.495Z,7.78
2024-02-02T11:03:05.470Z,7.66
2024-02-02T11:05:39.660Z,7.64
2024-02-02T11:08:12.718Z,8.11
2024-02-02T11:11:02.513Z,7.88
2024-02-02T11:13:51.168Z,8.04
2024-02-02T11:16:36.341Z,8.32
2024-02-02T11:19:34.947Z,7.96
2024-02-02T11:22:24.192Z,7.86
2024-02-02T11:25:10.797Z,8.07
2024-02-02T11:27:51.121Z,8.06
2024-02-02T11:30:47.942Z,7.98
2024-02-02T11:33:28.359Z,7.58
2024-02-02T11:36:13.182Z,7.76
2024-02-02T11:39:08.757Z,7.69
2024-02-02T11:41:39.148Z,8.09
2024-02-02T11:44:06.500Z,7.89
2024-02-02T11:46:34.341Z,8.01
2024-02-02T11:49:10.199Z,8.30
2024-02-02T11:51:38.798Z,8.40
2024-02-02T11:54:28.073Z,8.10
2024-02-02T11:56:56.683Z,8.34
2024-02-02T11:59:42.044Z,8.42
2024-02-02T12:02:17.773Z,8.27
2024-02-02T12:04:53.466Z,8.31
2024-02-02T12:07:29.323Z,8.31
2024-02-02T12:10:02.150Z,8.15
2024-02-02T12:12:37.555Z,8.13
2024-02-02T12:15:05.875Z,7.68
2024-02-02T12:17:32.584Z,7.32
2024-02-02T12:19:59.625Z,7.05
2024-02-02T12:22:27.228Z,7.07
2024-02-02T12:24:54.012Z,7.17
2024-02-02T12:27:20.712Z,7.16
2024-02-02T12:29:47.920Z,7.20
2024-02-02T12:32:14.669Z,7.27
2024-02-02T12:34:41.632Z,7.31
2024-02-02T12:37:08.774Z,7.28
2024-02-02T12:39:38.670Z,8.03
2024-02-02T12:42:07.269Z,7.71
2024-02-02T12:44:34.243Z,7.77
2024-02-02T12:47:01.310Z,8.11
2024-02-02T12:49:28.692Z,8.22
2024-02-02T12:51:57.678Z,7.84
2024-02-02T12:54:24.696Z,7.22
2024-02-02T12:56:52.021Z,7.11
2024-02-02T12:59:19.841Z,7.22
2024-02-02T13:01:49.313Z,7.33
2024-02-02T13:04:18.107Z,7.39
2024-02-02T13:06:46.535Z,7.11
2024-02-02T13:09:19.534Z,6.88
2024-02-02T13:11:49.885Z,6.76
2024-02-02T13:14:37.848Z,6.51
2024-02-02T13:17:13.835Z,6.39
2024-02-02T13:19:47.033Z,6.25
2024-02-02T13:22:28.074Z,6.50
2024-02-02T13:24:58.251Z,6.17
2024-02-02T13:27:33.632Z,6.10
2024-02-02T13:30:03.488Z,6.19
2024-02-02T13:32:34.817Z,6.59
2024-02-02T13:35:02.056Z,6.72
2024-02-02T13:37:37.924Z,6.74
2024-02-02T13:40:10.729Z,6.75
2024-02-02T13:42:38.129Z,6.42
2024-02-02T13:45:13.159Z,6.95
2024-02-02T13:47:40.208Z,6.56
2024-02-02T13:50:13.547Z,6.51
2024-02-02T13:52:40.515Z,6.88
2024-02-02T13:55:07.641Z,6.63
2024-02-02T13:57:34.406Z,6.67
2024-02-02T14:00:01.299Z,6.72
2024-02-02T14:02:28.245Z,6.24
2024-02-02T14:04:58.355Z,6.17
2024-02-02T14:07:25.058Z,6.19
2024-02-02T14:10:02.676Z,6.25
2024-02-02T14:12:29.447Z,6.12
2024-02-02T14:14:56.461Z,6.47
2024-02-02T14:17:24.043Z,6.64
2024-02-02T14:20:03.046Z,6.08
2024-02-02T14:22:30.148Z,5.74
2024-02-02T14:24:57.412Z,5.80
2024-02-02T14:27:38.872Z,5.60
2024-02-02T14:30:09.805Z,5.67
2024-02-02T14:32:36.920Z,5.66
2024-02-02T14:35:05.853Z,5.67
2024-02-02T14:37:33.703Z,5.57
2024-02-02T14:40:01.641Z,5.41
2024-02-02T14:42:31.536Z,5.35
2024-02-02T14:45:00.032Z,5.41
2024-02-02T14:47:27.875Z,5.71
2024-02-02T14:49:54.762Z,5.77
2024-02-02T14:52:21.836Z,5.84
2024-02-02T14:54:48.522Z,5.88
2024-02-02T14:57:18.504Z,5.85
2024-02-02T14:59:51.215Z,5.54
2024-02-02T15:02:18.202Z,5.47
2024-02-02T15:04:45.723Z,5.46
2024-02-02T15:07:12.997Z,5.46
2024-02-02T15:09:42.439Z,5.58
2024-02-02T15:12:09.804Z,5.53
2024-02-02T15:14:36.695Z,5.53
2024-02-02T15:17:03.791Z,5.55
2024-02-02T15:19:30.579Z,5.53
2024-02-02T15:21:57.338Z,5.62
2024-02-02T15:24:24.299Z,5.56
2024-02-02T15:26:51.117Z,5.60
2024-02-02T15:29:17.767Z,5.56
2024-02-02T15:31:44.402Z,5.62
2024-02-02T15:34:11.190Z,5.67
2024-02-02T15:36:38.020Z,5.68
2024-02-02T15:39:19.535Z,5.67
2024-02-02T15:41:54.052Z,5.74
2024-02-02T15:44:21.001Z,5.90
2024-02-02T15:46:47.658Z,6.08
2024-02-02T15:49:14.496Z,6.01
2024-02-02T15:51:41.480Z,5.90
2024-02-02T15:54:08.753Z,6.09
2024-02-02T15:56:35.438Z,6.25
2024-02-02T15:59:02.788Z,6.11
2024-02-02T16:01:29.594Z,6.24
2024-02-02T16:03:56.524Z,6.20
2024-02-02T16:06:23.414Z,6.31
2024-02-02T16:08:50.228Z,6.18
2024-02-02T16:11:17.491Z,6.33
2024-02-02T16:13:47.090Z,6.23
2024-02-02T16:16:13.791Z,6.23
2024-02-02T16:18:40.581Z,6.35
2024-02-02T16:21:07.340Z,6.27
2024-02-02T16:23:34.010Z,6.26
2024-02-02T16:26:00.835Z,6.25
2024-02-02T16:28:27.571Z,6.39
2024-02-02T16:30:54.371Z,6.23
2024-02-02T16:33:23.569Z,6.24
2024-02-02T16:35:50.507Z,6.28
2024-02-02T16:38:17.212Z,6.37
2024-02-02T16:40:43.959Z,6.36
2024-02-02T16:43:10.757Z,6.51
2024-02-02T16:45:37.490Z,6.57
2024-02-02T16:48:04.666Z,6.61
2024-02-02T16:50:31.647Z,6.56
2024-02-02T16:52:58.489Z,6.83
2024-02-02T16:55:25.252Z,6.85
2024-02-02T16:57:52.949Z,6.89
2024-02-02T17:00:20.354Z,7.21
2024-02-02T17:02:47.171Z,7.31
2024-02-02T17:05:13.845Z,7.23
2024-02-02T17:07:40.837Z,7.06
2024-02-02T17:10:07.914Z,7.12
2024-02-02T17:12:35.679Z,7.20
2024-02-02T17:15:04.316Z,7.11
2024-02-02T17:17:31.234Z,7.30
2024-02-02T17:19:58.151Z,7.03
2024-02-02T17:22:24.899Z,6.96
2024-02-02T17:24:51.708Z,6.95
2024-02-02T17:27:18.524Z,7.02
2024-02-02T17:29:45.290Z,7.04
2024-02-02T17:32:15.473Z,7.06
2024-02-02T17:34:50.325Z,7.12
2024-02-02T17:37:17.147Z,7.09
2024-02-02T17:39:44.018Z,7.16
2024-02-02T17:42:10.928Z,7.24
2024-02-02T17:44:37.601Z,7.19
2024-02-02T17:47:04.510Z,7.01
2024-02-02T17:49:41.088Z,6.94
2024-02-02T17:52:13.007Z,7.03
2024-02-02T17:54:39.956Z,7.12
2024-02-02T17:57:07.470Z,6.98
2024-02-02T17:59:34.346Z,6.93
2024-02-02T18:02:02.449Z,6.99
2024-02-02T18:04:29.701Z,7.05
2024-02-02T18:06:56.534Z,7.09
2024-02-02T18:09:23.398Z,7.09
2024-02-02T18:11:50.228Z,7.19
2024-02-02T18:14:20.695Z,7.44
2024-02-02T18:16:47.744Z,7.52
2024-02-02T18:19:14.522Z,7.66
2024-02-02T18:21:41.435Z,7.75
2024-02-02T18:24:09.671Z,7.70
2024-02-02T18:26:38.063Z,7.72
2024-02-02T18:29:05.102Z,7.65
2024-02-02T18:31:31.865Z,7.65
2024-02-02T18:33:58.633Z,7.76
2024-02-02T18:36:25.422Z,7.75
2024-02-02T18:38:52.247Z,7.72
2024-02-02T18:41:18.892Z,7.78
2024-02-02T18:43:45.551Z,7.78
2024-02-02T18:46:12.193Z,7.91
2024-02-02T18:48:40.536Z,7.93
2024-02-02T18:51:15.478Z,7.80
2024-02-02T18:53:42.127Z,7.84
2024-02-02T18:56:13.296Z,7.95
2024-02-02T18:58:46.043Z,7.87
2024-02-02T19:01:33.769Z,7.60
2024-02-02T19:04:00.929Z,7.61
2024-02-02T19:06:27.790Z,7.71
2024-02-02T19:08:54.942Z,7.86
2024-02-02T19:11:22.463Z,7.98
2024-02-02T19:13:49.188Z,7.79
2024-02-02T19:16:23.621Z,7.76
2024-02-02T19:18:51.434Z,7.80
2024-02-02T19:21:26.619Z,7.82
2024-02-02T19:23:54.280Z,7.64
2024-02-02T19:26:21.559Z,7.86
2024-02-02T19:28:48.226Z,7.84
2024-02-02T19:31:22.628Z,7.90
2024-02-02T19:33:50.448Z,8.05
2024-02-02T19:36:28.866Z,7.96
2024-02-02T19:38:59.476Z,7.64
2024-02-02T19:41:29.632Z,7.64
2024-02-02T19:43:57.164Z,7.61
2024-02-02T19:46:27.542Z,7.67
2024-02-02T19:48:55.996Z,7.91
2024-02-02T19:51:24.669Z,8.06
2024-02-02T19:53:51.812Z,8.13
2024-02-02T19:56:21.891Z,8.27
2024-02-02T19:58:50.592Z,8.33
2024-02-02T20:01:19.805Z,8.44
2024-02-02T20:03:48.442Z,8.46
2024-02-02T20:06:17.521Z,8.44
2024-02-02T20:08:45.945Z,8.52
2024-02-02T20:11:17.002Z,8.60
2024-02-02T20:13:44.069Z,8.55
2024-02-02T20:16:15.065Z,8.30
2024-02-02T20:18:42.170Z,8.38
2024-02-02T20:21:08.951Z,8.46
2024-02-02T20:23:37.680Z,8.55
2024-02-02T20:26:05.267Z,8.53
2024-02-02T20:28:32.282Z,8.55
2024-02-02T20:30:59.042Z,8.57
2024-02-02T20:33:26.115Z,8.60
2024-02-02T20:35:52.721Z,8.60
2024-02-02T20:38:19.416Z,8.61
2024-02-02T20:40:46.079Z,8.55
2024-02-02T20:43:12.789Z,8.58
2024-02-02T20:45:39.509Z,8.68
2024-02-02T20:48:06.534Z,8.71
2024-02-02T20:50:33.284Z,8.73
2024-02-02T20:52:59.985Z,8.73
2024-02-02T20:55:26.675Z,8.66
2024-02-02T20:57:53.428Z,8.68
2024-02-02T21:00:20.333Z,8.33
2024-02-02T21:02:47.069Z,8.33
2024-02-02T21:05:13.968Z,8.30
2024-02-02T21:07:40.814Z,8.36
2024-02-02T21:10:07.769Z,8.35
2024-02-02T21:12:34.931Z,8.42
2024-02-02T21:15:01.873Z,8.48
2024-02-02T21:17:29.442Z,8.51
2024-02-02T21:19:58.116Z,8.54
2024-02-02T21:22:25.596Z,8.47
2024-02-02T21:24:52.406Z,8.41
2024-02-02T21:27:19.190Z,8.50
2024-02-02T21:29:45.885Z,8.61
2024-02-02T21:32:12.542Z,8.47
2024-02-02T21:34:39.343Z,8.38
2024-02-02T21:37:06.148Z,8.38
2024-02-02T21:39:32.955Z,8.38
2024-02-02T21:41:59.633Z,8.36
2024-02-02T21:44:26.262Z,8.19
2024-02-02T21:46:52.949Z,8.11
2024-02-02T21:49:19.691Z,8.14
2024-02-02T21:51:46.500Z,8.23
2024-02-02T21:54:13.545Z,8.29
2024-02-02T21:56:43.457Z,7.96
2024-02-02T21:59:10.429Z,8.06
2024-02-02T22:01:39.011Z,8.07
2024-02-02T22:04:06.133Z,7.92
2024-02-02T22:06:33.377Z,8.04
2024-02-02T22:09:03.205Z,8.03
2024-02-02T22:11:29.905Z,7.96
2024-02-02T22:13:56.592Z,7.91
2024-02-02T22:16:23.220Z,7.89
2024-02-02T22:18:50.264Z,7.86
2024-02-02T22:21:25.852Z,7.83
2024-02-02T22:23:52.659Z,7.89
2024-02-02T22:26:20.582Z,7.91
2024-02-02T22:28:48.319Z,8.05
2024-02-02T22:31:21.877Z,8.09
2024-02-02T22:33:48.939Z,8.11
2024-02-02T22:36:25.709Z,8.01
2024-02-02T22:38:55.650Z,7.96
2024-02-02T22:41:33.106Z,7.98
2024-02-02T22:44:01.692Z,7.73
2024-02-02T22:46:32.157Z,7.56
2024-02-02T22:48:59.052Z,7.65
2024-02-02T22:51:25.899Z,7.67
2024-02-02T22:53:52.677Z,7.64
2024-02-02T22:56:19.305Z,7.62
2024-02-02T22:58:46.030Z,7.75
2024-02-02T23:01:13.136Z,7.82
2024-02-02T23:03:39.937Z,7.64
2024-02-02T23:06:07.286Z,7.58
2024-02-02T23:08:34.007Z,7.66
2024-02-02T23:11:00.664Z,7.30
2024-02-02T23:13:27.332Z,7.23
2024-02-02T23:15:55.051Z,7.12
2024-02-02T23:18:22.969Z,6.83
2024-02-02T23:20:49.834Z,6.69
2024-02-02T23:23:20.168Z,6.69
2024-02-02T23:25:46.970Z,6.74
2024-02-02T23:28:13.917Z,6.56
2024-02-02T23:30:41.200Z,6.53
2024-02-02T23:33:08.089Z,6.52
2024-02-02T23:35:34.841Z,6.43
2024-02-02T23:38:01.665Z,6.41
2024-02-02T23:40:28.862Z,6.41
2024-02-02T23:42:55.575Z,6.43
2024-02-02T23:45:22.784Z,6.45
2024-02-02T23:47:49.527Z,6.45
2024-02-02T23:50:16.415Z,6.41
2024-02-02T23:52:43.116Z,6.44
2024-02-02T23:55:10.696Z,6.24
2024-02-02T23:57:38.141Z,5.74
